sensor_id;sensor_type;location;lat;lon;timestamp;P1;P2;P0
49644;PMS5003;36494;50.730;-1.932;2023-02-28T00:01:49;4;3;
49644;PMS5003;36494;50.730;-1.932;2023-02-28T00:04:15;3;2;
49644;PMS5003;36494;50.730;-1.932;2023-02-28T00:06:40;4;4;
49644;PMS5003;36494;50.730;-1.932;2023-02-28T00:09:06;3;3;
49644;PMS5003;36494;50.730;-1.932;2023-02-28T00:11:31;4;4;
49644;PMS5003;36494;50.730;-1.932;2023-02-28T00:13:57;6;6;
49644;PMS5003;36494;50.730;-1.932;2023-02-28T00:16:22;5;5;
49644;PMS5003;36494;50.730;-1.932;2023-02-28T00:18:49;4;4;
49644;PMS5003;36494;50.730;-1.932;2023-02-28T00:21:13;5;5;
49644;PMS5003;36494;50.730;-1.932;2023-02-28T00:23:39;3;3;
49644;PMS5003;36494;50.730;-1.932;2023-02-28T00:26:04;4;4;
49644;PMS5003;36494;50.730;-1.932;2023-02-28T00:28:30;2;2;
49644;PMS5003;36494;50.730;-1.932;2023-02-28T00:30:56;4;4;
49644;PMS5003;36494;50.730;-1.932;2023-02-28T00:33:21;4;4;
49644;PMS5003;36494;50.730;-1.932;2023-02-28T00:35:47;7;7;
49644;PMS5003;36494;50.730;-1.932;2023-02-28T00:38:12;6;6;
49644;PMS5003;36494;50.730;-1.932;2023-02-28T00:40:37;6;6;
49644;PMS5003;36494;50.730;-1.932;2023-02-28T00:43:03;7;7;
49644;PMS5003;36494;50.730;-1.932;2023-02-28T00:45:28;7;7;
49644;PMS5003;36494;50.730;-1.932;2023-02-28T00:47:54;7;7;
49644;PMS5003;36494;50.730;-1.932;2023-02-28T00:50:19;7;7;
49644;PMS5003;36494;50.730;-1.932;2023-02-28T00:52:45;13;11;
49644;PMS5003;36494;50.730;-1.932;2023-02-28T00:55:11;9;9;
49644;PMS5003;36494;50.730;-1.932;2023-02-28T00:57:36;10;10;
49644;PMS5003;36494;50.730;-1.932;2023-02-28T01:00:02;14;13;
49644;PMS5003;36494;50.730;-1.932;2023-02-28T01:02:27;7;7;
49644;PMS5003;36494;50.730;-1.932;2023-02-28T01:04:53;9;9;
49644;PMS5003;36494;50.730;-1.932;2023-02-28T01:07:18;11;9;
49644;PMS5003;36494;50.730;-1.932;2023-02-28T01:09:44;9;9;
49644;PMS5003;36494;50.730;-1.932;2023-02-28T01:12:09;6;6;
49644;PMS5003;36494;50.730;-1.932;2023-02-28T01:14:35;8;8;
49644;PMS5003;36494;50.730;-1.932;2023-02-28T01:17:00;8;8;
49644;PMS5003;36494;50.730;-1.932;2023-02-28T01:19:26;8;7;
49644;PMS5003;36494;50.730;-1.932;2023-02-28T01:21:51;8;8;
49644;PMS5003;36494;50.730;-1.932;2023-02-28T01:24:16;8;8;
49644;PMS5003;36494;50.730;-1.932;2023-02-28T01:26:42;8;7;
49644;PMS5003;36494;50.730;-1.932;2023-02-28T01:29:07;8;8;
49644;PMS5003;36494;50.730;-1.932;2023-02-28T01:31:33;8;8;
49644;PMS5003;36494;50.730;-1.932;2023-02-28T01:33:58;8;7;
49644;PMS5003;36494;50.730;-1.932;2023-02-28T01:36:23;5;5;
49644;PMS5003;36494;50.730;-1.932;2023-02-28T01:38:48;6;6;
49644;PMS5003;36494;50.730;-1.932;2023-02-28T01:41:16;10;9;
49644;PMS5003;36494;50.730;-1.932;2023-02-28T01:46:05;9;8;
49644;PMS5003;36494;50.730;-1.932;2023-02-28T01:48:31;10;9;
49644;PMS5003;36494;50.730;-1.932;2023-02-28T01:50:56;7;7;
49644;PMS5003;36494;50.730;-1.932;2023-02-28T01:53:21;8;7;
49644;PMS5003;36494;50.730;-1.932;2023-02-28T01:55:46;9;9;
49644;PMS5003;36494;50.730;-1.932;2023-02-28T01:58:11;7;7;
49644;PMS5003;36494;50.730;-1.932;2023-02-28T02:00:37;7;7;
49644;PMS5003;36494;50.730;-1.932;2023-02-28T02:03:04;8;7;
49644;PMS5003;36494;50.730;-1.932;2023-02-28T02:05:29;9;7;
49644;PMS5003;36494;50.730;-1.932;2023-02-28T02:07:54;8;8;
49644;PMS5003;36494;50.730;-1.932;2023-02-28T02:10:20;7;6;
49644;PMS5003;36494;50.730;-1.932;2023-02-28T02:12:55;7;7;
49644;PMS5003;36494;50.730;-1.932;2023-02-28T02:15:11;6;6;
49644;PMS5003;36494;50.730;-1.932;2023-02-28T02:17:36;6;6;
49644;PMS5003;36494;50.730;-1.932;2023-02-28T02:20:07;6;6;
49644;PMS5003;36494;50.730;-1.932;2023-02-28T02:22:33;7;7;
49644;PMS5003;36494;50.730;-1.932;2023-02-28T02:24:58;7;6;
49644;PMS5003;36494;50.730;-1.932;2023-02-28T02:27:23;7;7;
49644;PMS5003;36494;50.730;-1.932;2023-02-28T02:29:47;8;6;
49644;PMS5003;36494;50.730;-1.932;2023-02-28T02:34:41;8;6;
49644;PMS5003;36494;50.730;-1.932;2023-02-28T02:37:02;6;5;
49644;PMS5003;36494;50.730;-1.932;2023-02-28T02:39:27;6;6;
49644;PMS5003;36494;50.730;-1.932;2023-02-28T02:41:51;7;7;
49644;PMS5003;36494;50.730;-1.932;2023-02-28T02:44:18;5;5;
49644;PMS5003;36494;50.730;-1.932;2023-02-28T02:46:42;5;5;
49644;PMS5003;36494;50.730;-1.932;2023-02-28T02:49:08;7;7;
49644;PMS5003;36494;50.730;-1.932;2023-02-28T02:51:32;9;8;
49644;PMS5003;36494;50.730;-1.932;2023-02-28T02:53:59;6;6;
49644;PMS5003;36494;50.730;-1.932;2023-02-28T02:56:24;5;5;
49644;PMS5003;36494;50.730;-1.932;2023-02-28T02:58:49;6;6;
49644;PMS5003;36494;50.730;-1.932;2023-02-28T03:01:15;4;4;
49644;PMS5003;36494;50.730;-1.932;2023-02-28T03:03:40;5;5;
49644;PMS5003;36494;50.730;-1.932;2023-02-28T03:06:05;7;7;
49644;PMS5003;36494;50.730;-1.932;2023-02-28T03:08:33;6;6;
49644;PMS5003;36494;50.730;-1.932;2023-02-28T03:10:56;5;5;
49644;PMS5003;36494;50.730;-1.932;2023-02-28T03:15:52;5;5;
49644;PMS5003;36494;50.730;-1.932;2023-02-28T03:18:13;6;5;
49644;PMS5003;36494;50.730;-1.932;2023-02-28T03:20:39;5;5;
49644;PMS5003;36494;50.730;-1.932;2023-02-28T03:23:07;6;6;
49644;PMS5003;36494;50.730;-1.932;2023-02-28T03:25:31;5;5;
49644;PMS5003;36494;50.730;-1.932;2023-02-28T03:27:57;7;6;
49644;PMS5003;36494;50.730;-1.932;2023-02-28T03:30:22;6;6;
49644;PMS5003;36494;50.730;-1.932;2023-02-28T03:32:47;4;4;
49644;PMS5003;36494;50.730;-1.932;2023-02-28T03:35:12;5;5;
49644;PMS5003;36494;50.730;-1.932;2023-02-28T03:37:37;7;7;
49644;PMS5003;36494;50.730;-1.932;2023-02-28T03:40:03;6;6;
49644;PMS5003;36494;50.730;-1.932;2023-02-28T03:42:28;6;6;
49644;PMS5003;36494;50.730;-1.932;2023-02-28T03:44:54;5;5;
49644;PMS5003;36494;50.730;-1.932;2023-02-28T03:47:21;8;6;
49644;PMS5003;36494;50.730;-1.932;2023-02-28T03:49:45;5;5;
49644;PMS5003;36494;50.730;-1.932;2023-02-28T03:52:09;7;6;
49644;PMS5003;36494;50.730;-1.932;2023-02-28T03:54:36;7;7;
49644;PMS5003;36494;50.730;-1.932;2023-02-28T03:57:02;9;9;
49644;PMS5003;36494;50.730;-1.932;2023-02-28T03:59:27;8;7;
49644;PMS5003;36494;50.730;-1.932;2023-02-28T04:01:51;7;6;
49644;PMS5003;36494;50.730;-1.932;2023-02-28T04:04:17;6;6;
49644;PMS5003;36494;50.730;-1.932;2023-02-28T04:06:43;6;6;
49644;PMS5003;36494;50.730;-1.932;2023-02-28T04:09:09;8;7;
49644;PMS5003;36494;50.730;-1.932;2023-02-28T04:11:34;7;6;
49644;PMS5003;36494;50.730;-1.932;2023-02-28T04:13:59;8;8;
49644;PMS5003;36494;50.730;-1.932;2023-02-28T04:16:24;7;7;
49644;PMS5003;36494;50.730;-1.932;2023-02-28T04:18:50;7;7;
49644;PMS5003;36494;50.730;-1.932;2023-02-28T04:21:15;9;7;
49644;PMS5003;36494;50.730;-1.932;2023-02-28T04:23:41;9;8;
49644;PMS5003;36494;50.730;-1.932;2023-02-28T04:26:06;8;8;
49644;PMS5003;36494;50.730;-1.932;2023-02-28T04:28:32;7;7;
49644;PMS5003;36494;50.730;-1.932;2023-02-28T04:30:58;7;7;
49644;PMS5003;36494;50.730;-1.932;2023-02-28T04:33:22;9;9;
49644;PMS5003;36494;50.730;-1.932;2023-02-28T04:35:48;8;8;
49644;PMS5003;36494;50.730;-1.932;2023-02-28T04:38:13;8;8;
49644;PMS5003;36494;50.730;-1.932;2023-02-28T04:40:39;9;8;
49644;PMS5003;36494;50.730;-1.932;2023-02-28T04:43:04;12;10;
49644;PMS5003;36494;50.730;-1.932;2023-02-28T04:45:30;10;10;
49644;PMS5003;36494;50.730;-1.932;2023-02-28T04:47:56;11;10;
49644;PMS5003;36494;50.730;-1.932;2023-02-28T04:50:21;11;11;
49644;PMS5003;36494;50.730;-1.932;2023-02-28T04:52:46;10;10;
49644;PMS5003;36494;50.730;-1.932;2023-02-28T04:55:12;10;10;
49644;PMS5003;36494;50.730;-1.932;2023-02-28T04:57:37;8;8;
49644;PMS5003;36494;50.730;-1.932;2023-02-28T05:00:03;12;11;
49644;PMS5003;36494;50.730;-1.932;2023-02-28T05:02:29;11;10;
49644;PMS5003;36494;50.730;-1.932;2023-02-28T05:04:54;13;13;
49644;PMS5003;36494;50.730;-1.932;2023-02-28T05:07:19;11;11;
49644;PMS5003;36494;50.730;-1.932;2023-02-28T05:09:44;11;11;
49644;PMS5003;36494;50.730;-1.932;2023-02-28T05:12:10;14;13;
49644;PMS5003;36494;50.730;-1.932;2023-02-28T05:14:35;12;11;
49644;PMS5003;36494;50.730;-1.932;2023-02-28T05:17:00;12;12;
49644;PMS5003;36494;50.730;-1.932;2023-02-28T05:19:26;12;11;
49644;PMS5003;36494;50.730;-1.932;2023-02-28T05:21:52;12;12;
49644;PMS5003;36494;50.730;-1.932;2023-02-28T05:24:17;13;13;
49644;PMS5003;36494;50.730;-1.932;2023-02-28T05:26:42;13;13;
49644;PMS5003;36494;50.730;-1.932;2023-02-28T05:29:07;12;12;
49644;PMS5003;36494;50.730;-1.932;2023-02-28T05:31:33;11;11;
49644;PMS5003;36494;50.730;-1.932;2023-02-28T05:33:58;11;11;
49644;PMS5003;36494;50.730;-1.932;2023-02-28T05:36:24;15;14;
49644;PMS5003;36494;50.730;-1.932;2023-02-28T05:38:50;12;12;
49644;PMS5003;36494;50.730;-1.932;2023-02-28T05:41:14;12;12;
49644;PMS5003;36494;50.730;-1.932;2023-02-28T05:43:39;13;13;
49644;PMS5003;36494;50.730;-1.932;2023-02-28T05:46:06;20;18;
49644;PMS5003;36494;50.730;-1.932;2023-02-28T05:48:31;16;16;
49644;PMS5003;36494;50.730;-1.932;2023-02-28T05:50:57;17;15;
49644;PMS5003;36494;50.730;-1.932;2023-02-28T05:53:22;13;13;
49644;PMS5003;36494;50.730;-1.932;2023-02-28T05:55:47;16;15;
49644;PMS5003;36494;50.730;-1.932;2023-02-28T05:58:13;13;13;
49644;PMS5003;36494;50.730;-1.932;2023-02-28T06:00:38;20;19;
49644;PMS5003;36494;50.730;-1.932;2023-02-28T06:03:04;17;17;
49644;PMS5003;36494;50.730;-1.932;2023-02-28T06:05:29;16;15;
49644;PMS5003;36494;50.730;-1.932;2023-02-28T06:07:54;18;15;
49644;PMS5003;36494;50.730;-1.932;2023-02-28T06:10:20;18;18;
49644;PMS5003;36494;50.730;-1.932;2023-02-28T06:12:45;18;17;
49644;PMS5003;36494;50.730;-1.932;2023-02-28T06:15:11;26;24;
49644;PMS5003;36494;50.730;-1.932;2023-02-28T06:17:36;26;26;
49644;PMS5003;36494;50.730;-1.932;2023-02-28T06:20:02;29;27;
49644;PMS5003;36494;50.730;-1.932;2023-02-28T06:22:27;31;31;
49644;PMS5003;36494;50.730;-1.932;2023-02-28T06:24:52;32;30;
49644;PMS5003;36494;50.730;-1.932;2023-02-28T06:27:18;37;33;
49644;PMS5003;36494;50.730;-1.932;2023-02-28T06:29:44;27;27;
49644;PMS5003;36494;50.730;-1.932;2023-02-28T06:32:09;36;32;
49644;PMS5003;36494;50.730;-1.932;2023-02-28T06:34:34;34;31;
49644;PMS5003;36494;50.730;-1.932;2023-02-28T06:37:00;32;31;
49644;PMS5003;36494;50.730;-1.932;2023-02-28T06:39:25;38;37;
49644;PMS5003;36494;50.730;-1.932;2023-02-28T06:41:51;39;38;
49644;PMS5003;36494;50.730;-1.932;2023-02-28T06:44:17;39;36;
49644;PMS5003;36494;50.730;-1.932;2023-02-28T06:46:43;33;31;
49644;PMS5003;36494;50.730;-1.932;2023-02-28T06:49:08;29;27;
49644;PMS5003;36494;50.730;-1.932;2023-02-28T06:51:34;29;28;
49644;PMS5003;36494;50.730;-1.932;2023-02-28T06:53:59;27;26;
49644;PMS5003;36494;50.730;-1.932;2023-02-28T06:56:24;26;25;
49644;PMS5003;36494;50.730;-1.932;2023-02-28T06:58:50;27;26;
49644;PMS5003;36494;50.730;-1.932;2023-02-28T07:01:15;27;26;
49644;PMS5003;36494;50.730;-1.932;2023-02-28T07:03:41;29;28;
49644;PMS5003;36494;50.730;-1.932;2023-02-28T07:06:06;30;28;
49644;PMS5003;36494;50.730;-1.932;2023-02-28T07:08:32;29;26;
49644;PMS5003;36494;50.730;-1.932;2023-02-28T07:10:57;35;33;
49644;PMS5003;36494;50.730;-1.932;2023-02-28T07:13:23;26;25;
49644;PMS5003;36494;50.730;-1.932;2023-02-28T07:15:53;27;26;
49644;PMS5003;36494;50.730;-1.932;2023-02-28T07:18:13;26;25;
49644;PMS5003;36494;50.730;-1.932;2023-02-28T07:20:38;25;24;
49644;PMS5003;36494;50.730;-1.932;2023-02-28T07:23:03;27;26;
49644;PMS5003;36494;50.730;-1.932;2023-02-28T07:25:29;28;25;
49644;PMS5003;36494;50.730;-1.932;2023-02-28T07:27:55;27;26;
49644;PMS5003;36494;50.730;-1.932;2023-02-28T07:30:19;23;22;
49644;PMS5003;36494;50.730;-1.932;2023-02-28T07:32:45;25;24;
49644;PMS5003;36494;50.730;-1.932;2023-02-28T07:35:09;27;25;
49644;PMS5003;36494;50.730;-1.932;2023-02-28T07:37:35;24;23;
49644;PMS5003;36494;50.730;-1.932;2023-02-28T07:40:00;30;29;
49644;PMS5003;36494;50.730;-1.932;2023-02-28T07:42:25;25;25;
49644;PMS5003;36494;50.730;-1.932;2023-02-28T07:44:51;26;24;
49644;PMS5003;36494;50.730;-1.932;2023-02-28T07:47:17;24;23;
49644;PMS5003;36494;50.730;-1.932;2023-02-28T07:49:42;23;23;
49644;PMS5003;36494;50.730;-1.932;2023-02-28T07:52:08;27;25;
49644;PMS5003;36494;50.730;-1.932;2023-02-28T07:54:33;21;20;
49644;PMS5003;36494;50.730;-1.932;2023-02-28T07:56:58;23;21;
49644;PMS5003;36494;50.730;-1.932;2023-02-28T07:59:23;25;24;
49644;PMS5003;36494;50.730;-1.932;2023-02-28T08:01:49;16;15;
49644;PMS5003;36494;50.730;-1.932;2023-02-28T08:04:14;17;16;
49644;PMS5003;36494;50.730;-1.932;2023-02-28T08:06:39;14;14;
49644;PMS5003;36494;50.730;-1.932;2023-02-28T08:09:05;15;14;
49644;PMS5003;36494;50.730;-1.932;2023-02-28T08:11:30;19;19;
49644;PMS5003;36494;50.730;-1.932;2023-02-28T08:13:55;20;18;
49644;PMS5003;36494;50.730;-1.932;2023-02-28T08:16:21;18;16;
49644;PMS5003;36494;50.730;-1.932;2023-02-28T08:18:46;17;16;
49644;PMS5003;36494;50.730;-1.932;2023-02-28T08:21:12;15;12;
49644;PMS5003;36494;50.730;-1.932;2023-02-28T08:23:37;14;13;
49644;PMS5003;36494;50.730;-1.932;2023-02-28T08:26:03;15;15;
49644;PMS5003;36494;50.730;-1.932;2023-02-28T08:28:28;17;16;
49644;PMS5003;36494;50.730;-1.932;2023-02-28T08:30:53;16;15;
49644;PMS5003;36494;50.730;-1.932;2023-02-28T08:33:19;15;15;
49644;PMS5003;36494;50.730;-1.932;2023-02-28T08:35:44;17;16;
49644;PMS5003;36494;50.730;-1.932;2023-02-28T08:38:10;18;17;
49644;PMS5003;36494;50.730;-1.932;2023-02-28T08:40:35;14;13;
49644;PMS5003;36494;50.730;-1.932;2023-02-28T08:43:01;13;13;
49644;PMS5003;36494;50.730;-1.932;2023-02-28T08:45:26;17;14;
49644;PMS5003;36494;50.730;-1.932;2023-02-28T08:47:52;13;13;
49644;PMS5003;36494;50.730;-1.932;2023-02-28T08:50:17;9;8;
49644;PMS5003;36494;50.730;-1.932;2023-02-28T08:52:43;13;13;
49644;PMS5003;36494;50.730;-1.932;2023-02-28T08:55:08;10;9;
49644;PMS5003;36494;50.730;-1.932;2023-02-28T08:57:33;13;12;
49644;PMS5003;36494;50.730;-1.932;2023-02-28T08:59:58;16;16;
49644;PMS5003;36494;50.730;-1.932;2023-02-28T09:02:24;11;11;
49644;PMS5003;36494;50.730;-1.932;2023-02-28T09:04:50;13;12;
49644;PMS5003;36494;50.730;-1.932;2023-02-28T09:07:15;12;10;
49644;PMS5003;36494;50.730;-1.932;2023-02-28T09:09:41;11;10;
49644;PMS5003;36494;50.730;-1.932;2023-02-28T09:12:06;11;10;
49644;PMS5003;36494;50.730;-1.932;2023-02-28T09:14:32;9;9;
49644;PMS5003;36494;50.730;-1.932;2023-02-28T09:16:57;12;12;
49644;PMS5003;36494;50.730;-1.932;2023-02-28T09:19:23;9;7;
49644;PMS5003;36494;50.730;-1.932;2023-02-28T09:21:48;9;8;
49644;PMS5003;36494;50.730;-1.932;2023-02-28T09:24:14;9;8;
49644;PMS5003;36494;50.730;-1.932;2023-02-28T09:26:39;11;10;
49644;PMS5003;36494;50.730;-1.932;2023-02-28T09:29:05;9;8;
49644;PMS5003;36494;50.730;-1.932;2023-02-28T09:31:30;7;7;
49644;PMS5003;36494;50.730;-1.932;2023-02-28T09:33:56;9;8;
49644;PMS5003;36494;50.730;-1.932;2023-02-28T09:36:22;8;7;
49644;PMS5003;36494;50.730;-1.932;2023-02-28T09:38:47;9;8;
49644;PMS5003;36494;50.730;-1.932;2023-02-28T09:41:13;7;7;
49644;PMS5003;36494;50.730;-1.932;2023-02-28T09:43:38;5;5;
49644;PMS5003;36494;50.730;-1.932;2023-02-28T09:46:08;8;8;
49644;PMS5003;36494;50.730;-1.932;2023-02-28T09:48:31;7;7;
49644;PMS5003;36494;50.730;-1.932;2023-02-28T09:50:55;9;9;
49644;PMS5003;36494;50.730;-1.932;2023-02-28T09:53:21;7;6;
49644;PMS5003;36494;50.730;-1.932;2023-02-28T09:55:47;7;7;
49644;PMS5003;36494;50.730;-1.932;2023-02-28T09:58:14;7;7;
49644;PMS5003;36494;50.730;-1.932;2023-02-28T10:00:37;6;5;
49644;PMS5003;36494;50.730;-1.932;2023-02-28T10:03:13;7;7;
49644;PMS5003;36494;50.730;-1.932;2023-02-28T10:05:28;9;8;
49644;PMS5003;36494;50.730;-1.932;2023-02-28T10:07:58;8;8;
49644;PMS5003;36494;50.730;-1.932;2023-02-28T10:10:20;9;9;
49644;PMS5003;36494;50.730;-1.932;2023-02-28T10:12:44;9;8;
49644;PMS5003;36494;50.730;-1.932;2023-02-28T10:15:09;9;8;
49644;PMS5003;36494;50.730;-1.932;2023-02-28T10:17:36;11;10;
49644;PMS5003;36494;50.730;-1.932;2023-02-28T10:20:00;13;13;
49644;PMS5003;36494;50.730;-1.932;2023-02-28T10:22:27;8;8;
49644;PMS5003;36494;50.730;-1.932;2023-02-28T10:24:52;9;9;
49644;PMS5003;36494;50.730;-1.932;2023-02-28T10:27:17;9;8;
49644;PMS5003;36494;50.730;-1.932;2023-02-28T10:29:43;12;11;
49644;PMS5003;36494;50.730;-1.932;2023-02-28T10:32:08;10;9;
49644;PMS5003;36494;50.730;-1.932;2023-02-28T10:34:32;11;11;
49644;PMS5003;36494;50.730;-1.932;2023-02-28T10:36:57;8;7;
49644;PMS5003;36494;50.730;-1.932;2023-02-28T10:41:48;7;7;
49644;PMS5003;36494;50.730;-1.932;2023-02-28T10:44:15;7;6;
49644;PMS5003;36494;50.730;-1.932;2023-02-28T10:46:39;8;7;
49644;PMS5003;36494;50.730;-1.932;2023-02-28T10:49:05;9;9;
49644;PMS5003;36494;50.730;-1.932;2023-02-28T10:51:34;10;10;
49644;PMS5003;36494;50.730;-1.932;2023-02-28T10:53:54;53;53;
49644;PMS5003;36494;50.730;-1.932;2023-02-28T10:56:20;10;9;
49644;PMS5003;36494;50.730;-1.932;2023-02-28T10:58:47;9;8;
49644;PMS5003;36494;50.730;-1.932;2023-02-28T11:01:12;8;8;
49644;PMS5003;36494;50.730;-1.932;2023-02-28T11:03:35;7;7;
49644;PMS5003;36494;50.730;-1.932;2023-02-28T11:06:05;7;7;
49644;PMS5003;36494;50.730;-1.932;2023-02-28T11:08:26;10;9;
49644;PMS5003;36494;50.730;-1.932;2023-02-28T11:10:54;5;5;
49644;PMS5003;36494;50.730;-1.932;2023-02-28T11:13:19;6;5;
49644;PMS5003;36494;50.730;-1.932;2023-02-28T11:15:43;7;7;
49644;PMS5003;36494;50.730;-1.932;2023-02-28T11:20:34;7;6;
49644;PMS5003;36494;50.730;-1.932;2023-02-28T11:23:00;5;5;
49644;PMS5003;36494;50.730;-1.932;2023-02-28T11:25:25;4;4;
49644;PMS5003;36494;50.730;-1.932;2023-02-28T11:27:50;3;3;
49644;PMS5003;36494;50.730;-1.932;2023-02-28T11:30:24;3;3;
49644;PMS5003;36494;50.730;-1.932;2023-02-28T11:32:41;5;5;
49644;PMS5003;36494;50.730;-1.932;2023-02-28T11:35:14;4;4;
49644;PMS5003;36494;50.730;-1.932;2023-02-28T11:37:31;4;4;
49644;PMS5003;36494;50.730;-1.932;2023-02-28T11:39:57;2;2;
49644;PMS5003;36494;50.730;-1.932;2023-02-28T11:42:27;3;3;
49644;PMS5003;36494;50.730;-1.932;2023-02-28T11:44:52;3;2;
49644;PMS5003;36494;50.730;-1.932;2023-02-28T11:47:15;2;2;
49644;PMS5003;36494;50.730;-1.932;2023-02-28T11:49:41;5;5;
49644;PMS5003;36494;50.730;-1.932;2023-02-28T11:52:06;5;5;
49644;PMS5003;36494;50.730;-1.932;2023-02-28T11:54:32;3;3;
49644;PMS5003;36494;50.730;-1.932;2023-02-28T11:56:55;4;4;
49644;PMS5003;36494;50.730;-1.932;2023-02-28T11:59:26;5;5;
49644;PMS5003;36494;50.730;-1.932;2023-02-28T12:01:52;4;3;
49644;PMS5003;36494;50.730;-1.932;2023-02-28T12:04:13;2;2;
49644;PMS5003;36494;50.730;-1.932;2023-02-28T12:06:36;3;3;
49644;PMS5003;36494;50.730;-1.932;2023-02-28T12:09:04;3;3;
49644;PMS5003;36494;50.730;-1.932;2023-02-28T12:11:35;3;2;
49644;PMS5003;36494;50.730;-1.932;2023-02-28T12:13:55;3;2;
49644;PMS5003;36494;50.730;-1.932;2023-02-28T12:16:20;2;2;
49644;PMS5003;36494;50.730;-1.932;2023-02-28T12:18:48;3;3;
49644;PMS5003;36494;50.730;-1.932;2023-02-28T12:21:10;3;3;
49644;PMS5003;36494;50.730;-1.932;2023-02-28T12:23:40;4;4;
49644;PMS5003;36494;50.730;-1.932;2023-02-28T12:26:00;2;2;
49644;PMS5003;36494;50.730;-1.932;2023-02-28T12:28:25;2;2;
49644;PMS5003;36494;50.730;-1.932;2023-02-28T12:30:50;3;3;
49644;PMS5003;36494;50.730;-1.932;2023-02-28T12:33:16;3;3;
49644;PMS5003;36494;50.730;-1.932;2023-02-28T12:35:42;3;3;
49644;PMS5003;36494;50.730;-1.932;2023-02-28T12:38:08;3;3;
49644;PMS5003;36494;50.730;-1.932;2023-02-28T12:40:33;1;1;
49644;PMS5003;36494;50.730;-1.932;2023-02-28T12:42:58;1;1;
49644;PMS5003;36494;50.730;-1.932;2023-02-28T12:45:23;1;1;
49644;PMS5003;36494;50.730;-1.932;2023-02-28T12:47:48;3;3;
49644;PMS5003;36494;50.730;-1.932;2023-02-28T12:50:13;3;3;
49644;PMS5003;36494;50.730;-1.932;2023-02-28T12:52:40;5;4;
49644;PMS5003;36494;50.730;-1.932;2023-02-28T12:55:04;3;3;
49644;PMS5003;36494;50.730;-1.932;2023-02-28T12:57:31;3;3;
49644;PMS5003;36494;50.730;-1.932;2023-02-28T12:59:55;3;3;
49644;PMS5003;36494;50.730;-1.932;2023-02-28T13:04:51;3;3;
49644;PMS5003;36494;50.730;-1.932;2023-02-28T13:09:36;2;2;
49644;PMS5003;36494;50.730;-1.932;2023-02-28T13:12:01;4;4;
49644;PMS5003;36494;50.730;-1.932;2023-02-28T13:14:27;4;3;
49644;PMS5003;36494;50.730;-1.932;2023-02-28T13:16:55;8;8;
49644;PMS5003;36494;50.730;-1.932;2023-02-28T13:19:17;4;4;
49644;PMS5003;36494;50.730;-1.932;2023-02-28T13:21:43;5;5;
49644;PMS5003;36494;50.730;-1.932;2023-02-28T13:24:08;8;6;
49644;PMS5003;36494;50.730;-1.932;2023-02-28T13:29:27;6;5;
49644;PMS5003;36494;50.730;-1.932;2023-02-28T13:31:24;5;5;
49644;PMS5003;36494;50.730;-1.932;2023-02-28T13:38:41;4;4;
49644;PMS5003;36494;50.730;-1.932;2023-02-28T13:46:06;5;5;
49644;PMS5003;36494;50.730;-1.932;2023-02-28T13:48:23;7;6;
49644;PMS5003;36494;50.730;-1.932;2023-02-28T13:50:47;6;5;
49644;PMS5003;36494;50.730;-1.932;2023-02-28T13:55:41;7;6;
49644;PMS5003;36494;50.730;-1.932;2023-02-28T13:58:08;7;6;
49644;PMS5003;36494;50.730;-1.932;2023-02-28T14:00:33;4;4;
49644;PMS5003;36494;50.730;-1.932;2023-02-28T14:05:20;5;5;
49644;PMS5003;36494;50.730;-1.932;2023-02-28T14:07:46;9;9;
49644;PMS5003;36494;50.730;-1.932;2023-02-28T14:10:15;8;8;
49644;PMS5003;36494;50.730;-1.932;2023-02-28T14:15:01;8;7;
49644;PMS5003;36494;50.730;-1.932;2023-02-28T14:17:27;8;8;
49644;PMS5003;36494;50.730;-1.932;2023-02-28T14:19:52;8;8;
49644;PMS5003;36494;50.730;-1.932;2023-02-28T14:22:21;7;7;
49644;PMS5003;36494;50.730;-1.932;2023-02-28T14:24:48;5;5;
49644;PMS5003;36494;50.730;-1.932;2023-02-28T14:27:11;6;6;
49644;PMS5003;36494;50.730;-1.932;2023-02-28T14:29:36;7;7;
49644;PMS5003;36494;50.730;-1.932;2023-02-28T14:32:01;9;8;
49644;PMS5003;36494;50.730;-1.932;2023-02-28T14:34:29;7;6;
49644;PMS5003;36494;50.730;-1.932;2023-02-28T14:36:49;9;9;
49644;PMS5003;36494;50.730;-1.932;2023-02-28T14:39:15;7;7;
49644;PMS5003;36494;50.730;-1.932;2023-02-28T14:41:41;8;8;
49644;PMS5003;36494;50.730;-1.932;2023-02-28T14:44:13;8;8;
49644;PMS5003;36494;50.730;-1.932;2023-02-28T14:46:34;10;9;
49644;PMS5003;36494;50.730;-1.932;2023-02-28T14:48:56;6;6;
49644;PMS5003;36494;50.730;-1.932;2023-02-28T14:51:22;7;7;
49644;PMS5003;36494;50.730;-1.932;2023-02-28T14:53:48;13;10;
49644;PMS5003;36494;50.730;-1.932;2023-02-28T14:58:37;9;9;
49644;PMS5003;36494;50.730;-1.932;2023-02-28T15:01:03;9;8;
49644;PMS5003;36494;50.730;-1.932;2023-02-28T15:03:30;7;7;
49644;PMS5003;36494;50.730;-1.932;2023-02-28T15:05:54;15;14;
49644;PMS5003;36494;50.730;-1.932;2023-02-28T15:08:19;12;12;
49644;PMS5003;36494;50.730;-1.932;2023-02-28T15:10:44;9;9;
49644;PMS5003;36494;50.730;-1.932;2023-02-28T15:13:11;13;12;
49644;PMS5003;36494;50.730;-1.932;2023-02-28T15:15:40;9;8;
49644;PMS5003;36494;50.730;-1.932;2023-02-28T15:18:00;13;13;
49644;PMS5003;36494;50.730;-1.932;2023-02-28T15:20:26;9;9;
49644;PMS5003;36494;50.730;-1.932;2023-02-28T15:22:51;8;8;
49644;PMS5003;36494;50.730;-1.932;2023-02-28T15:25:17;7;7;
49644;PMS5003;36494;50.730;-1.932;2023-02-28T15:27:42;10;10;
49644;PMS5003;36494;50.730;-1.932;2023-02-28T15:30:08;10;10;
49644;PMS5003;36494;50.730;-1.932;2023-02-28T15:32:33;9;9;
49644;PMS5003;36494;50.730;-1.932;2023-02-28T15:34:58;9;9;
49644;PMS5003;36494;50.730;-1.932;2023-02-28T15:37:25;8;8;
49644;PMS5003;36494;50.730;-1.932;2023-02-28T15:39:48;8;8;
49644;PMS5003;36494;50.730;-1.932;2023-02-28T15:42:17;11;10;
49644;PMS5003;36494;50.730;-1.932;2023-02-28T15:44:39;10;9;
49644;PMS5003;36494;50.730;-1.932;2023-02-28T15:47:05;8;8;
49644;PMS5003;36494;50.730;-1.932;2023-02-28T15:49:32;8;8;
49644;PMS5003;36494;50.730;-1.932;2023-02-28T15:51:56;10;10;
49644;PMS5003;36494;50.730;-1.932;2023-02-28T15:54:22;13;12;
49644;PMS5003;36494;50.730;-1.932;2023-02-28T15:56:46;10;10;
49644;PMS5003;36494;50.730;-1.932;2023-02-28T15:59:13;11;10;
49644;PMS5003;36494;50.730;-1.932;2023-02-28T16:01:36;16;15;
49644;PMS5003;36494;50.730;-1.932;2023-02-28T16:04:03;14;13;
49644;PMS5003;36494;50.730;-1.932;2023-02-28T16:06:33;14;13;
49644;PMS5003;36494;50.730;-1.932;2023-02-28T16:08:52;16;15;
49644;PMS5003;36494;50.730;-1.932;2023-02-28T16:11:17;12;12;
49644;PMS5003;36494;50.730;-1.932;2023-02-28T16:13:43;10;10;
49644;PMS5003;36494;50.730;-1.932;2023-02-28T16:16:08;15;14;
49644;PMS5003;36494;50.730;-1.932;2023-02-28T16:18:33;13;12;
49644;PMS5003;36494;50.730;-1.932;2023-02-28T16:20:58;17;17;
49644;PMS5003;36494;50.730;-1.932;2023-02-28T16:23:24;14;12;
49644;PMS5003;36494;50.730;-1.932;2023-02-28T16:25:49;14;14;
49644;PMS5003;36494;50.730;-1.932;2023-02-28T16:28:16;9;9;
49644;PMS5003;36494;50.730;-1.932;2023-02-28T16:30:39;16;16;
49644;PMS5003;36494;50.730;-1.932;2023-02-28T16:33:07;11;11;
49644;PMS5003;36494;50.730;-1.932;2023-02-28T16:35:30;13;12;
49644;PMS5003;36494;50.730;-1.932;2023-02-28T16:37:56;14;13;
49644;PMS5003;36494;50.730;-1.932;2023-02-28T16:40:22;10;10;
49644;PMS5003;36494;50.730;-1.932;2023-02-28T16:42:47;13;11;
49644;PMS5003;36494;50.730;-1.932;2023-02-28T16:45:16;13;13;
49644;PMS5003;36494;50.730;-1.932;2023-02-28T16:47:37;9;9;